sensor_id;sensor_type;location;lat;lon;timestamp;P1;durP1;ratioP1;P2;durP2;ratioP2
6033;SDS011;3045;43.226;27.858;2023-12-29T00:00:50;22.93;;;18.77;;
6033;SDS011;3045;43.226;27.858;2023-12-29T00:03:17;29.73;;;19.90;;
6033;SDS011;3045;43.226;27.858;2023-12-29T00:05:44;24.77;;;19.47;;
6033;SDS011;3045;43.226;27.858;2023-12-29T00:08:11;20.53;;;16.43;;
6033;SDS011;3045;43.226;27.858;2023-12-29T00:10:38;19.67;;;16.27;;
6033;SDS011;3045;43.226;27.858;2023-12-29T00:13:05;21.83;;;18.87;;
6033;SDS011;3045;43.226;27.858;2023-12-29T00:15:32;26.70;;;18.40;;
6033;SDS011;3045;43.226;27.858;2023-12-29T00:18:01;25.80;;;18.40;;
6033;SDS011;3045;43.226;27.858;2023-12-29T00:20:28;30.23;;;18.70;;
6033;SDS011;3045;43.226;27.858;2023-12-29T00:22:55;21.10;;;16.77;;
6033;SDS011;3045;43.226;27.858;2023-12-29T00:25:24;21.57;;;17.33;;
6033;SDS011;3045;43.226;27.858;2023-12-29T00:27:51;22.37;;;17.47;;
6033;SDS011;3045;43.226;27.858;2023-12-29T00:30:18;24.60;;;17.40;;
6033;SDS011;3045;43.226;27.858;2023-12-29T00:32:45;17.70;;;13.83;;
6033;SDS011;3045;43.226;27.858;2023-12-29T00:35:14;11.53;;;10.43;;
6033;SDS011;3045;43.226;27.858;2023-12-29T00:37:41;24.27;;;15.77;;
6033;SDS011;3045;43.226;27.858;2023-12-29T00:40:08;25.43;;;16.27;;
6033;SDS011;3045;43.226;27.858;2023-12-29T00:42:36;18.33;;;15.43;;
6033;SDS011;3045;43.226;27.858;2023-12-29T00:45:03;17.63;;;15.73;;
6033;SDS011;3045;43.226;27.858;2023-12-29T00:47:31;16.30;;;14.67;;
6033;SDS011;3045;43.226;27.858;2023-12-29T00:49:58;20.17;;;15.57;;
6033;SDS011;3045;43.226;27.858;2023-12-29T00:52:27;17.57;;;14.90;;
6033;SDS011;3045;43.226;27.858;2023-12-29T00:54:54;23.50;;;16.07;;
6033;SDS011;3045;43.226;27.858;2023-12-29T00:57:21;27.43;;;15.37;;
6033;SDS011;3045;43.226;27.858;2023-12-29T00:59:48;13.10;;;12.00;;
6033;SDS011;3045;43.226;27.858;2023-12-29T01:02:15;12.23;;;10.80;;
6033;SDS011;3045;43.226;27.858;2023-12-29T01:04:42;15.67;;;9.83;;
6033;SDS011;3045;43.226;27.858;2023-12-29T01:07:09;9.87;;;9.07;;
6033;SDS011;3045;43.226;27.858;2023-12-29T01:09:40;11.13;;;10.00;;
6033;SDS011;3045;43.226;27.858;2023-12-29T01:12:08;9.47;;;8.77;;
6033;SDS011;3045;43.226;27.858;2023-12-29T01:14:35;8.33;;;7.83;;
6033;SDS011;3045;43.226;27.858;2023-12-29T01:17:02;9.37;;;8.30;;
6033;SDS011;3045;43.226;27.858;2023-12-29T01:19:30;8.57;;;8.07;;
6033;SDS011;3045;43.226;27.858;2023-12-29T01:21:57;7.90;;;7.43;;
6033;SDS011;3045;43.226;27.858;2023-12-29T01:24:24;9.50;;;8.67;;
6033;SDS011;3045;43.226;27.858;2023-12-29T01:26:52;7.70;;;7.30;;
6033;SDS011;3045;43.226;27.858;2023-12-29T01:29:19;8.10;;;7.40;;
6033;SDS011;3045;43.226;27.858;2023-12-29T01:31:46;10.47;;;9.43;;
6033;SDS011;3045;43.226;27.858;2023-12-29T01:34:13;11.60;;;10.20;;
6033;SDS011;3045;43.226;27.858;2023-12-29T01:36:41;12.37;;;11.47;;
6033;SDS011;3045;43.226;27.858;2023-12-29T01:39:08;11.47;;;10.57;;
6033;SDS011;3045;43.226;27.858;2023-12-29T01:41:35;13.67;;;12.27;;
6033;SDS011;3045;43.226;27.858;2023-12-29T01:46:55;11.90;;;10.70;;
6033;SDS011;3045;43.226;27.858;2023-12-29T01:49:25;12.87;;;10.57;;
6033;SDS011;3045;43.226;27.858;2023-12-29T01:51:53;11.53;;;10.60;;
6033;SDS011;3045;43.226;27.858;2023-12-29T01:54:22;11.23;;;10.40;;
6033;SDS011;3045;43.226;27.858;2023-12-29T01:56:51;11.97;;;10.90;;
6033;SDS011;3045;43.226;27.858;2023-12-29T01:59:20;12.20;;;11.00;;
6033;SDS011;3045;43.226;27.858;2023-12-29T02:01:49;11.30;;;10.40;;
6033;SDS011;3045;43.226;27.858;2023-12-29T02:04:16;11.43;;;10.63;;
6033;SDS011;3045;43.226;27.858;2023-12-29T02:06:44;12.10;;;10.80;;
6033;SDS011;3045;43.226;27.858;2023-12-29T02:09:11;10.10;;;9.20;;
6033;SDS011;3045;43.226;27.858;2023-12-29T02:11:38;12.70;;;11.10;;
6033;SDS011;3045;43.226;27.858;2023-12-29T02:14:06;12.70;;;10.83;;
6033;SDS011;3045;43.226;27.858;2023-12-29T02:16:35;13.93;;;12.43;;
6033;SDS011;3045;43.226;27.858;2023-12-29T02:19:13;18.60;;;13.10;;
6033;SDS011;3045;43.226;27.858;2023-12-29T02:21:50;19.23;;;13.67;;
6033;SDS011;3045;43.226;27.858;2023-12-29T02:24:17;24.57;;;14.80;;
6033;SDS011;3045;43.226;27.858;2023-12-29T02:26:47;15.77;;;14.27;;
6033;SDS011;3045;43.226;27.858;2023-12-29T02:29:20;19.40;;;15.50;;
6033;SDS011;3045;43.226;27.858;2023-12-29T02:31:50;22.10;;;17.10;;
6033;SDS011;3045;43.226;27.858;2023-12-29T02:34:20;23.83;;;16.60;;
6033;SDS011;3045;43.226;27.858;2023-12-29T02:36:50;18.30;;;15.63;;
6033;SDS011;3045;43.226;27.858;2023-12-29T02:39:17;24.27;;;16.37;;
6033;SDS011;3045;43.226;27.858;2023-12-29T02:41:46;22.77;;;15.60;;
6033;SDS011;3045;43.226;27.858;2023-12-29T02:44:13;34.07;;;15.67;;
6033;SDS011;3045;43.226;27.858;2023-12-29T02:46:40;31.63;;;16.80;;
6033;SDS011;3045;43.226;27.858;2023-12-29T02:49:08;21.33;;;14.70;;
6033;SDS011;3045;43.226;27.858;2023-12-29T02:51:38;23.13;;;14.67;;
6033;SDS011;3045;43.226;27.858;2023-12-29T02:54:05;21.50;;;14.17;;
6033;SDS011;3045;43.226;27.858;2023-12-29T02:56:33;21.97;;;16.30;;
6033;SDS011;3045;43.226;27.858;2023-12-29T02:59:02;27.17;;;16.40;;
6033;SDS011;3045;43.226;27.858;2023-12-29T03:01:29;21.97;;;15.47;;
6033;SDS011;3045;43.226;27.858;2023-12-29T03:03:56;27.47;;;16.77;;
6033;SDS011;3045;43.226;27.858;2023-12-29T03:06:23;23.13;;;15.90;;
6033;SDS011;3045;43.226;27.858;2023-12-29T03:08:50;23.97;;;17.30;;
6033;SDS011;3045;43.226;27.858;2023-12-29T03:11:17;21.40;;;17.10;;
6033;SDS011;3045;43.226;27.858;2023-12-29T03:13:44;24.50;;;17.87;;
6033;SDS011;3045;43.226;27.858;2023-12-29T03:16:13;26.17;;;17.50;;
6033;SDS011;3045;43.226;27.858;2023-12-29T03:18:40;27.10;;;18.50;;
6033;SDS011;3045;43.226;27.858;2023-12-29T03:21:07;23.87;;;18.00;;
6033;SDS011;3045;43.226;27.858;2023-12-29T03:23:34;28.93;;;17.70;;
6033;SDS011;3045;43.226;27.858;2023-12-29T03:26:01;30.07;;;17.60;;
6033;SDS011;3045;43.226;27.858;2023-12-29T03:28:28;45.07;;;19.40;;
6033;SDS011;3045;43.226;27.858;2023-12-29T03:30:56;30.73;;;18.33;;
6033;SDS011;3045;43.226;27.858;2023-12-29T03:33:24;31.90;;;19.73;;
6033;SDS011;3045;43.226;27.858;2023-12-29T03:35:51;23.13;;;18.13;;
6033;SDS011;3045;43.226;27.858;2023-12-29T03:38:18;27.07;;;17.93;;
6033;SDS011;3045;43.226;27.858;2023-12-29T03:40:45;23.33;;;17.70;;
6033;SDS011;3045;43.226;27.858;2023-12-29T03:43:12;31.00;;;18.03;;
6033;SDS011;3045;43.226;27.858;2023-12-29T03:45:39;26.10;;;18.20;;
6033;SDS011;3045;43.226;27.858;2023-12-29T03:48:06;25.47;;;18.10;;
6033;SDS011;3045;43.226;27.858;2023-12-29T03:50:36;30.93;;;17.83;;
6033;SDS011;3045;43.226;27.858;2023-12-29T03:53:03;31.13;;;19.77;;
6033;SDS011;3045;43.226;27.858;2023-12-29T03:55:30;30.17;;;18.07;;
6033;SDS011;3045;43.226;27.858;2023-12-29T03:57:57;31.73;;;17.63;;
6033;SDS011;3045;43.226;27.858;2023-12-29T04:00:27;31.13;;;18.17;;
6033;SDS011;3045;43.226;27.858;2023-12-29T04:02:54;25.47;;;19.37;;
6033;SDS011;3045;43.226;27.858;2023-12-29T04:05:21;36.40;;;19.00;;
6033;SDS011;3045;43.226;27.858;2023-12-29T04:07:49;26.33;;;17.60;;
6033;SDS011;3045;43.226;27.858;2023-12-29T04:10:16;39.17;;;19.50;;
6033;SDS011;3045;43.226;27.858;2023-12-29T04:12:43;31.10;;;19.37;;
6033;SDS011;3045;43.226;27.858;2023-12-29T04:15:11;36.53;;;19.37;;
6033;SDS011;3045;43.226;27.858;2023-12-29T04:17:38;33.80;;;19.60;;
6033;SDS011;3045;43.226;27.858;2023-12-29T04:20:06;32.80;;;19.77;;
6033;SDS011;3045;43.226;27.858;2023-12-29T04:22:33;27.23;;;18.67;;
6033;SDS011;3045;43.226;27.858;2023-12-29T04:25:02;39.83;;;19.57;;
6033;SDS011;3045;43.226;27.858;2023-12-29T04:27:29;31.73;;;20.10;;
6033;SDS011;3045;43.226;27.858;2023-12-29T04:29:56;33.73;;;20.03;;
6033;SDS011;3045;43.226;27.858;2023-12-29T04:32:23;35.27;;;20.27;;
6033;SDS011;3045;43.226;27.858;2023-12-29T04:34:50;30.90;;;20.43;;
6033;SDS011;3045;43.226;27.858;2023-12-29T04:37:17;33.73;;;21.33;;
6033;SDS011;3045;43.226;27.858;2023-12-29T04:39:44;39.97;;;23.40;;
6033;SDS011;3045;43.226;27.858;2023-12-29T04:42:13;36.07;;;21.73;;
6033;SDS011;3045;43.226;27.858;2023-12-29T04:44:40;41.57;;;22.00;;
6033;SDS011;3045;43.226;27.858;2023-12-29T04:47:07;40.87;;;21.93;;
6033;SDS011;3045;43.226;27.858;2023-12-29T04:49:34;46.47;;;23.53;;
6033;SDS011;3045;43.226;27.858;2023-12-29T04:52:01;56.17;;;24.80;;
6033;SDS011;3045;43.226;27.858;2023-12-29T04:54:28;49.23;;;25.70;;
6033;SDS011;3045;43.226;27.858;2023-12-29T04:56:55;42.73;;;24.30;;
6033;SDS011;3045;43.226;27.858;2023-12-29T04:59:24;39.97;;;21.97;;
6033;SDS011;3045;43.226;27.858;2023-12-29T05:01:51;45.97;;;21.83;;
6033;SDS011;3045;43.226;27.858;2023-12-29T05:04:18;45.83;;;21.93;;
6033;SDS011;3045;43.226;27.858;2023-12-29T05:06:45;33.77;;;22.57;;
6033;SDS011;3045;43.226;27.858;2023-12-29T05:09:12;41.37;;;22.80;;
6033;SDS011;3045;43.226;27.858;2023-12-29T05:11:39;38.23;;;20.87;;
6033;SDS011;3045;43.226;27.858;2023-12-29T05:14:06;43.33;;;21.27;;
6033;SDS011;3045;43.226;27.858;2023-12-29T05:16:35;34.93;;;21.50;;
6033;SDS011;3045;43.226;27.858;2023-12-29T05:19:02;29.20;;;19.73;;
6033;SDS011;3045;43.226;27.858;2023-12-29T05:21:29;36.07;;;22.30;;
6033;SDS011;3045;43.226;27.858;2023-12-29T05:23:56;38.20;;;20.27;;
6033;SDS011;3045;43.226;27.858;2023-12-29T05:26:23;31.83;;;19.90;;
6033;SDS011;3045;43.226;27.858;2023-12-29T05:28:50;43.57;;;21.43;;
6033;SDS011;3045;43.226;27.858;2023-12-29T05:31:17;32.50;;;19.67;;
6033;SDS011;3045;43.226;27.858;2023-12-29T05:33:46;38.90;;;19.80;;
6033;SDS011;3045;43.226;27.858;2023-12-29T05:36:13;40.67;;;22.60;;
6033;SDS011;3045;43.226;27.858;2023-12-29T05:38:40;44.93;;;20.70;;
6033;SDS011;3045;43.226;27.858;2023-12-29T05:41:07;32.50;;;19.43;;
6033;SDS011;3045;43.226;27.858;2023-12-29T05:43:34;30.87;;;18.60;;
6033;SDS011;3045;43.226;27.858;2023-12-29T05:46:02;46.13;;;20.00;;
6033;SDS011;3045;43.226;27.858;2023-12-29T05:48:35;30.93;;;19.10;;
6033;SDS011;3045;43.226;27.858;2023-12-29T05:51:07;32.97;;;20.13;;
6033;SDS011;3045;43.226;27.858;2023-12-29T05:53:35;37.13;;;19.83;;
6033;SDS011;3045;43.226;27.858;2023-12-29T05:56:02;30.60;;;19.40;;
6033;SDS011;3045;43.226;27.858;2023-12-29T05:58:30;39.60;;;19.73;;
6033;SDS011;3045;43.226;27.858;2023-12-29T06:00:57;49.70;;;22.57;;
6033;SDS011;3045;43.226;27.858;2023-12-29T06:03:25;43.27;;;22.00;;
6033;SDS011;3045;43.226;27.858;2023-12-29T06:05:53;37.50;;;20.60;;
6033;SDS011;3045;43.226;27.858;2023-12-29T06:08:21;51.47;;;21.33;;
6033;SDS011;3045;43.226;27.858;2023-12-29T06:10:49;55.63;;;20.10;;
6033;SDS011;3045;43.226;27.858;2023-12-29T06:13:16;39.37;;;20.10;;
6033;SDS011;3045;43.226;27.858;2023-12-29T06:15:43;42.57;;;18.80;;
6033;SDS011;3045;43.226;27.858;2023-12-29T06:18:10;34.50;;;20.73;;
6033;SDS011;3045;43.226;27.858;2023-12-29T06:20:37;29.40;;;18.23;;
6033;SDS011;3045;43.226;27.858;2023-12-29T06:23:04;42.20;;;19.50;;
6033;SDS011;3045;43.226;27.858;2023-12-29T06:25:33;43.03;;;20.17;;
6033;SDS011;3045;43.226;27.858;2023-12-29T06:28:00;43.77;;;20.43;;
6033;SDS011;3045;43.226;27.858;2023-12-29T06:30:29;50.17;;;22.13;;
6033;SDS011;3045;43.226;27.858;2023-12-29T06:32:56;43.70;;;19.30;;
6033;SDS011;3045;43.226;27.858;2023-12-29T06:35:23;55.40;;;20.17;;
6033;SDS011;3045;43.226;27.858;2023-12-29T06:37:50;33.67;;;18.97;;
6033;SDS011;3045;43.226;27.858;2023-12-29T06:40:17;48.03;;;19.23;;
6033;SDS011;3045;43.226;27.858;2023-12-29T06:42:45;39.97;;;18.63;;
6033;SDS011;3045;43.226;27.858;2023-12-29T06:45:13;53.17;;;19.43;;
6033;SDS011;3045;43.226;27.858;2023-12-29T06:47:40;43.83;;;17.40;;
6033;SDS011;3045;43.226;27.858;2023-12-29T06:50:07;47.53;;;18.53;;
6033;SDS011;3045;43.226;27.858;2023-12-29T06:52:37;35.37;;;18.60;;
6033;SDS011;3045;43.226;27.858;2023-12-29T06:55:05;55.87;;;18.93;;
6033;SDS011;3045;43.226;27.858;2023-12-29T06:57:33;40.93;;;16.57;;
6033;SDS011;3045;43.226;27.858;2023-12-29T07:00:02;41.17;;;16.90;;
6033;SDS011;3045;43.226;27.858;2023-12-29T07:02:29;38.50;;;18.30;;
6033;SDS011;3045;43.226;27.858;2023-12-29T07:04:57;65.93;;;20.43;;
6033;SDS011;3045;43.226;27.858;2023-12-29T07:07:24;38.30;;;17.60;;
6033;SDS011;3045;43.226;27.858;2023-12-29T07:09:51;55.10;;;20.93;;
6033;SDS011;3045;43.226;27.858;2023-12-29T07:12:18;69.30;;;26.80;;
6033;SDS011;3045;43.226;27.858;2023-12-29T07:14:45;56.50;;;23.13;;
6033;SDS011;3045;43.226;27.858;2023-12-29T07:17:14;59.97;;;23.00;;
6033;SDS011;3045;43.226;27.858;2023-12-29T07:19:41;55.00;;;21.50;;
6033;SDS011;3045;43.226;27.858;2023-12-29T07:22:08;95.60;;;24.53;;
6033;SDS011;3045;43.226;27.858;2023-12-29T07:24:35;59.63;;;21.57;;
6033;SDS011;3045;43.226;27.858;2023-12-29T07:27:02;47.20;;;18.17;;
6033;SDS011;3045;43.226;27.858;2023-12-29T07:29:31;46.13;;;17.47;;
6033;SDS011;3045;43.226;27.858;2023-12-29T07:31:58;74.10;;;20.07;;
6033;SDS011;3045;43.226;27.858;2023-12-29T07:34:27;61.40;;;18.70;;
6033;SDS011;3045;43.226;27.858;2023-12-29T07:36:56;74.60;;;17.80;;
6033;SDS011;3045;43.226;27.858;2023-12-29T07:39:23;58.07;;;16.17;;
6033;SDS011;3045;43.226;27.858;2023-12-29T07:41:50;35.33;;;14.13;;
6033;SDS011;3045;43.226;27.858;2023-12-29T07:44:18;40.70;;;15.23;;
6033;SDS011;3045;43.226;27.858;2023-12-29T07:46:45;47.53;;;15.33;;
6033;SDS011;3045;43.226;27.858;2023-12-29T07:49:13;50.43;;;14.23;;
6033;SDS011;3045;43.226;27.858;2023-12-29T07:51:41;34.60;;;13.70;;
6033;SDS011;3045;43.226;27.858;2023-12-29T07:54:09;30.13;;;13.03;;
6033;SDS011;3045;43.226;27.858;2023-12-29T07:56:36;27.57;;;12.03;;
6033;SDS011;3045;43.226;27.858;2023-12-29T07:59:03;29.57;;;13.23;;
6033;SDS011;3045;43.226;27.858;2023-12-29T08:01:32;19.07;;;12.23;;
6033;SDS011;3045;43.226;27.858;2023-12-29T08:04:01;22.40;;;11.18;;
6033;SDS011;3045;43.226;27.858;2023-12-29T08:06:28;14.38;;;12.15;;
6033;SDS011;3045;43.226;27.858;2023-12-29T08:08:57;25.42;;;12.18;;
6033;SDS011;3045;43.226;27.858;2023-12-29T08:11:24;28.52;;;13.18;;
6033;SDS011;3045;43.226;27.858;2023-12-29T08:13:51;62.85;;;16.38;;
6033;SDS011;3045;43.226;27.858;2023-12-29T08:16:18;44.28;;;14.82;;
6033;SDS011;3045;43.226;27.858;2023-12-29T08:18:45;63.88;;;14.35;;
6033;SDS011;3045;43.226;27.858;2023-12-29T08:21:16;35.03;;;13.90;;
6033;SDS011;3045;43.226;27.858;2023-12-29T08:23:44;45.80;;;14.70;;
6033;SDS011;3045;43.226;27.858;2023-12-29T08:26:14;23.75;;;13.60;;
6033;SDS011;3045;43.226;27.858;2023-12-29T08:28:41;27.35;;;12.73;;
6033;SDS011;3045;43.226;27.858;2023-12-29T08:31:11;18.95;;;12.07;;
6033;SDS011;3045;43.226;27.858;2023-12-29T08:33:38;21.83;;;11.93;;
6033;SDS011;3045;43.226;27.858;2023-12-29T08:36:06;25.52;;;12.65;;
6033;SDS011;3045;43.226;27.858;2023-12-29T08:38:33;17.90;;;11.15;;
6033;SDS011;3045;43.226;27.858;2023-12-29T08:41:00;28.42;;;12.85;;
6033;SDS011;3045;43.226;27.858;2023-12-29T08:43:29;32.67;;;11.82;;
6033;SDS011;3045;43.226;27.858;2023-12-29T08:45:56;19.38;;;11.82;;
6033;SDS011;3045;43.226;27.858;2023-12-29T08:48:23;16.05;;;10.30;;
6033;SDS011;3045;43.226;27.858;2023-12-29T08:50:50;14.60;;;11.02;;
6033;SDS011;3045;43.226;27.858;2023-12-29T08:53:17;11.40;;;10.45;;
6033;SDS011;3045;43.226;27.858;2023-12-29T08:55:44;13.75;;;11.23;;
6033;SDS011;3045;43.226;27.858;2023-12-29T08:58:11;17.30;;;11.85;;
6033;SDS011;3045;43.226;27.858;2023-12-29T09:00:40;15.85;;;10.95;;
6033;SDS011;3045;43.226;27.858;2023-12-29T09:03:07;12.70;;;11.38;;
6033;SDS011;3045;43.226;27.858;2023-12-29T09:05:34;32.92;;;12.73;;
6033;SDS011;3045;43.226;27.858;2023-12-29T09:08:01;25.52;;;11.70;;
6033;SDS011;3045;43.226;27.858;2023-12-29T09:10:29;15.75;;;11.45;;
6033;SDS011;3045;43.226;27.858;2023-12-29T09:12:56;12.30;;;10.30;;
6033;SDS011;3045;43.226;27.858;2023-12-29T09:15:24;11.63;;;10.35;;
6033;SDS011;3045;43.226;27.858;2023-12-29T09:17:52;11.90;;;10.25;;
6033;SDS011;3045;43.226;27.858;2023-12-29T09:20:19;11.85;;;10.25;;
6033;SDS011;3045;43.226;27.858;2023-12-29T09:22:46;11.38;;;10.30;;
6033;SDS011;3045;43.226;27.858;2023-12-29T09:25:13;10.63;;;9.65;;
6033;SDS011;3045;43.226;27.858;2023-12-29T09:27:41;30.67;;;12.40;;
6033;SDS011;3045;43.226;27.858;2023-12-29T09:30:09;24.80;;;11.98;;
6033;SDS011;3045;43.226;27.858;2023-12-29T09:32:37;21.17;;;11.30;;
6033;SDS011;3045;43.226;27.858;2023-12-29T09:35:05;15.43;;;10.32;;
6033;SDS011;3045;43.226;27.858;2023-12-29T09:37:32;15.00;;;10.23;;
6033;SDS011;3045;43.226;27.858;2023-12-29T09:40:00;17.60;;;10.07;;
6033;SDS011;3045;43.226;27.858;2023-12-29T09:42:28;24.90;;;10.55;;
6033;SDS011;3045;43.226;27.858;2023-12-29T09:44:56;17.23;;;11.00;;
6033;SDS011;3045;43.226;27.858;2023-12-29T09:47:24;20.40;;;11.32;;
6033;SDS011;3045;43.226;27.858;2023-12-29T09:49:51;18.17;;;11.32;;
6033;SDS011;3045;43.226;27.858;2023-12-29T09:52:21;17.65;;;10.23;;
6033;SDS011;3045;43.226;27.858;2023-12-29T09:54:51;12.75;;;9.25;;
6033;SDS011;3045;43.226;27.858;2023-12-29T09:57:18;13.75;;;9.02;;
6033;SDS011;3045;43.226;27.858;2023-12-29T09:59:46;13.20;;;8.70;;
6033;SDS011;3045;43.226;27.858;2023-12-29T10:02:16;12.88;;;8.70;;
6033;SDS011;3045;43.226;27.858;2023-12-29T10:04:44;20.33;;;9.73;;
6033;SDS011;3045;43.226;27.858;2023-12-29T10:07:13;12.95;;;8.95;;
6033;SDS011;3045;43.226;27.858;2023-12-29T10:09:46;16.85;;;9.57;;
6033;SDS011;3045;43.226;27.858;2023-12-29T10:12:17;16.85;;;8.45;;
6033;SDS011;3045;43.226;27.858;2023-12-29T10:14:46;11.85;;;7.72;;
6033;SDS011;3045;43.226;27.858;2023-12-29T10:17:19;10.60;;;7.88;;
6033;SDS011;3045;43.226;27.858;2023-12-29T10:19:58;13.68;;;9.50;;
6033;SDS011;3045;43.226;27.858;2023-12-29T10:22:34;10.85;;;9.82;;
6033;SDS011;3045;43.226;27.858;2023-12-29T10:25:15;20.33;;;11.55;;
6033;SDS011;3045;43.226;27.858;2023-12-29T10:27:43;11.30;;;10.00;;
6033;SDS011;3045;43.226;27.858;2023-12-29T10:30:11;10.13;;;8.55;;
6033;SDS011;3045;43.226;27.858;2023-12-29T10:32:39;10.30;;;9.30;;
6033;SDS011;3045;43.226;27.858;2023-12-29T10:35:09;10.60;;;8.70;;
6033;SDS011;3045;43.226;27.858;2023-12-29T10:37:36;9.05;;;8.25;;
6033;SDS011;3045;43.226;27.858;2023-12-29T10:40:05;8.93;;;8.32;;
6033;SDS011;3045;43.226;27.858;2023-12-29T10:42:34;10.10;;;8.48;;
6033;SDS011;3045;43.226;27.858;2023-12-29T10:45:04;9.13;;;8.48;;
6033;SDS011;3045;43.226;27.858;2023-12-29T10:47:33;11.27;;;9.45;;
6033;SDS011;3045;43.226;27.858;2023-12-29T10:50:01;8.27;;;7.60;;
6033;SDS011;3045;43.226;27.858;2023-12-29T10:52:30;6.63;;;5.38;;
6033;SDS011;3045;43.226;27.858;2023-12-29T10:55:05;4.90;;;4.68;;
6033;SDS011;3045;43.226;27.858;2023-12-29T10:57:34;9.30;;;5.60;;
6033;SDS011;3045;43.226;27.858;2023-12-29T11:00:02;8.82;;;5.20;;
6033;SDS011;3045;43.226;27.858;2023-12-29T11:02:30;15.93;;;5.78;;
6033;SDS011;3045;43.226;27.858;2023-12-29T11:05:05;9.48;;;4.75;;
6033;SDS011;3045;43.226;27.858;2023-12-29T11:07:36;6.32;;;4.82;;
6033;SDS011;3045;43.226;27.858;2023-12-29T11:10:04;8.50;;;4.95;;
6033;SDS011;3045;43.226;27.858;2023-12-29T11:12:33;5.60;;;5.10;;
6033;SDS011;3045;43.226;27.858;2023-12-29T11:15:03;5.53;;;4.90;;
6033;SDS011;3045;43.226;27.858;2023-12-29T11:17:32;6.18;;;4.93;;
6033;SDS011;3045;43.226;27.858;2023-12-29T11:20:00;5.30;;;4.60;;
6033;SDS011;3045;43.226;27.858;2023-12-29T11:22:29;11.57;;;5.70;;
6033;SDS011;3045;43.226;27.858;2023-12-29T11:24:57;7.65;;;4.95;;
6033;SDS011;3045;43.226;27.858;2023-12-29T11:27:28;5.38;;;4.97;;
6033;SDS011;3045;43.226;27.858;2023-12-29T11:29:59;5.40;;;4.95;;
6033;SDS011;3045;43.226;27.858;2023-12-29T11:32:34;5.43;;;5.13;;
6033;SDS011;3045;43.226;27.858;2023-12-29T11:35:13;7.55;;;5.60;;
6033;SDS011;3045;43.226;27.858;2023-12-29T11:38:00;10.30;;;5.35;;
6033;SDS011;3045;43.226;27.858;2023-12-29T11:40:40;5.10;;;4.68;;
6033;SDS011;3045;43.226;27.858;2023-12-29T11:43:09;8.88;;;5.45;;
6033;SDS011;3045;43.226;27.858;2023-12-29T11:45:43;6.47;;;5.28;;
6033;SDS011;3045;43.226;27.858;2023-12-29T11:48:10;6.47;;;5.95;;
6033;SDS011;3045;43.226;27.858;2023-12-29T11:50:38;6.30;;;5.82;;
6033;SDS011;3045;43.226;27.858;2023-12-29T11:53:06;6.07;;;5.68;;
6033;SDS011;3045;43.226;27.858;2023-12-29T11:55:34;13.77;;;5.30;;
6033;SDS011;3045;43.226;27.858;2023-12-29T11:58:02;6.27;;;5.70;;
6033;SDS011;3045;43.226;27.858;2023-12-29T12:00:44;7.03;;;5.60;;
6033;SDS011;3045;43.226;27.858;2023-12-29T12:03:19;7.23;;;5.33;;
6033;SDS011;3045;43.226;27.858;2023-12-29T12:05:52;6.37;;;4.90;;
6033;SDS011;3045;43.226;27.858;2023-12-29T12:08:30;5.77;;;5.37;;
6033;SDS011;3045;43.226;27.858;2023-12-29T12:14:01;5.67;;;5.37;;
6033;SDS011;3045;43.226;27.858;2023-12-29T12:19:20;13.07;;;5.23;;
6033;SDS011;3045;43.226;27.858;2023-12-29T12:21:49;4.97;;;4.67;;
6033;SDS011;3045;43.226;27.858;2023-12-29T12:24:20;5.23;;;4.83;;
6033;SDS011;3045;43.226;27.858;2023-12-29T12:26:47;7.40;;;5.00;;
6033;SDS011;3045;43.226;27.858;2023-12-29T12:29:15;16.50;;;6.07;;
6033;SDS011;3045;43.226;27.858;2023-12-29T12:34:30;12.67;;;5.27;;
6033;SDS011;3045;43.226;27.858;2023-12-29T12:37:03;10.40;;;5.73;;
6033;SDS011;3045;43.226;27.858;2023-12-29T12:39:38;9.93;;;5.40;;
6033;SDS011;3045;43.226;27.858;2023-12-29T12:42:05;12.77;;;6.10;;
6033;SDS011;3045;43.226;27.858;2023-12-29T12:44:32;5.10;;;4.63;;
6033;SDS011;3045;43.226;27.858;2023-12-29T12:47:05;18.80;;;5.63;;
6033;SDS011;3045;43.226;27.858;2023-12-29T12:49:34;7.27;;;5.20;;
6033;SDS011;3045;43.226;27.858;2023-12-29T12:52:01;8.23;;;5.10;;
6033;SDS011;3045;43.226;27.858;2023-12-29T12:54:28;10.43;;;5.90;;
6033;SDS011;3045;43.226;27.858;2023-12-29T12:56:55;5.30;;;4.90;;
6033;SDS011;3045;43.226;27.858;2023-12-29T12:59:23;6.20;;;5.70;;
6033;SDS011;3045;43.226;27.858;2023-12-29T13:01:50;7.67;;;5.50;;
6033;SDS011;3045;43.226;27.858;2023-12-29T13:04:18;7.07;;;5.27;;
6033;SDS011;3045;43.226;27.858;2023-12-29T13:06:46;9.50;;;5.23;;
6033;SDS011;3045;43.226;27.858;2023-12-29T13:09:13;9.37;;;4.93;;
6033;SDS011;3045;43.226;27.858;2023-12-29T13:11:44;13.57;;;5.83;;
6033;SDS011;3045;43.226;27.858;2023-12-29T13:14:19;11.47;;;5.60;;
6033;SDS011;3045;43.226;27.858;2023-12-29T13:16:47;4.90;;;4.53;;
6033;SDS011;3045;43.226;27.858;2023-12-29T13:19:15;9.13;;;5.13;;
6033;SDS011;3045;43.226;27.858;2023-12-29T13:21:46;16.63;;;6.07;;
6033;SDS011;3045;43.226;27.858;2023-12-29T13:24:14;9.00;;;5.40;;
6033;SDS011;3045;43.226;27.858;2023-12-29T13:26:43;6.13;;;5.53;;
6033;SDS011;3045;43.226;27.858;2023-12-29T13:29:17;4.90;;;4.40;;
6033;SDS011;3045;43.226;27.858;2023-12-29T13:31:46;5.07;;;4.67;;
6033;SDS011;3045;43.226;27.858;2023-12-29T13:34:15;5.63;;;5.07;;
6033;SDS011;3045;43.226;27.858;2023-12-29T13:36:50;5.17;;;4.67;;
6033;SDS011;3045;43.226;27.858;2023-12-29T13:39:22;11.60;;;4.77;;
6033;SDS011;3045;43.226;27.858;2023-12-29T13:41:54;13.70;;;4.63;;
6033;SDS011;3045;43.226;27.858;2023-12-29T13:44:23;11.87;;;5.00;;
6033;SDS011;3045;43.226;27.858;2023-12-29T13:46:51;5.70;;;5.00;;
6033;SDS011;3045;43.226;27.858;2023-12-29T13:49:20;16.90;;;4.77;;
6033;SDS011;3045;43.226;27.858;2023-12-29T13:51:49;9.93;;;5.30;;
6033;SDS011;3045;43.226;27.858;2023-12-29T13:54:16;9.47;;;5.40;;
6033;SDS011;3045;43.226;27.858;2023-12-29T13:56:53;22.03;;;5.47;;
6033;SDS011;3045;43.226;27.858;2023-12-29T13:59:28;6.40;;;5.23;;
6033;SDS011;3045;43.226;27.858;2023-12-29T14:01:58;10.97;;;5.10;;
6033;SDS011;3045;43.226;27.858;2023-12-29T14:04:27;5.13;;;4.83;;
6033;SDS011;3045;43.226;27.858;2023-12-29T14:06:59;4.90;;;4.70;;
6033;SDS011;3045;43.226;27.858;2023-12-29T14:09:28;5.40;;;5.00;;
6033;SDS011;3045;43.226;27.858;2023-12-29T14:11:55;4.57;;;4.37;;
6033;SDS011;3045;43.226;27.858;2023-12-29T14:14:23;5.17;;;4.77;;
6033;SDS011;3045;43.226;27.858;2023-12-29T14:16:50;5.00;;;4.70;;
6033;SDS011;3045;43.226;27.858;2023-12-29T14:19:18;5.20;;;4.87;;
6033;SDS011;3045;43.226;27.858;2023-12-29T14:21:46;4.80;;;4.60;;
6033;SDS011;3045;43.226;27.858;2023-12-29T14:24:18;5.33;;;5.03;;
6033;SDS011;3045;43.226;27.858;2023-12-29T14:26:53;5.50;;;5.20;;
6033;SDS011;3045;43.226;27.858;2023-12-29T14:29:22;4.73;;;4.50;;
6033;SDS011;3045;43.226;27.858;2023-12-29T14:31:49;4.87;;;4.47;;
6033;SDS011;3045;43.226;27.858;2023-12-29T14:34:18;5.13;;;4.93;;
6033;SDS011;3045;43.226;27.858;2023-12-29T14:36:45;4.93;;;4.63;;
6033;SDS011;3045;43.226;27.858;2023-12-29T14:39:12;5.47;;;5.23;;
6033;SDS011;3045;43.226;27.858;2023-12-29T14:41:42;6.03;;;5.53;;
6033;SDS011;3045;43.226;27.858;2023-12-29T14:44:10;20.47;;;6.37;;
6033;SDS011;3045;43.226;27.858;2023-12-29T14:46:37;27.90;;;8.10;;
6033;SDS011;3045;43.226;27.858;2023-12-29T14:49:05;12.53;;;6.20;;
6033;SDS011;3045;43.226;27.858;2023-12-29T14:51:33;15.03;;;7.53;;
6033;SDS011;3045;43.226;27.858;2023-12-29T14:54:00;10.37;;;7.50;;
6033;SDS011;3045;43.226;27.858;2023-12-29T14:56:28;28.40;;;8.10;;
6033;SDS011;3045;43.226;27.858;2023-12-29T14:58:57;27.70;;;9.27;;
6033;SDS011;3045;43.226;27.858;2023-12-29T15:01:24;20.53;;;7.47;;